Time;durP1;ratioP1;P1;durP2;ratioP2;P2;SDS_P1;SDS_P2;PMS_P1;PMS_P2;Temp;Humidity;BMP_temperature;BMP_pressure;BME280_temperature;BME280_humidity;BME280_pressure;Samples;Min_cycle;Max_cycle;Signal;HPM_P1;HPM_P2
2023/05/17 00:01:58;;;;;;;2.53;2.00;;;7.50;98.00;;;;;;5031909;28;21025;-67
2023/05/17 00:04:25;;;;;;;4.73;1.80;;;7.50;98.00;;;;;;5032241;28;20469;-68
2023/05/17 00:06:52;;;;;;;5.07;2.00;;;7.50;98.00;;;;;;5032251;28;20481;-68
2023/05/17 00:09:21;;;;;;;4.43;1.70;;;7.60;98.00;;;;;;5032073;28;20469;-67
2023/05/17 00:11:48;;;;;;;2.10;1.60;;;7.60;98.00;;;;;;5032027;28;20464;-67
2023/05/17 00:14:15;;;;;;;2.13;1.70;;;7.60;98.00;;;;;;5014480;28;20458;-68
2023/05/17 00:16:43;;;;;;;3.07;1.83;;;7.90;98.00;;;;;;5031800;28;20456;-68
2023/05/17 00:19:10;;;;;;;4.47;1.77;;;7.90;98.00;;;;;;5013974;28;20489;-68
2023/05/17 00:21:37;;;;;;;3.30;2.07;;;7.90;98.00;;;;;;5031869;28;20466;-68
2023/05/17 00:24:05;;;;;;;2.60;1.60;;;7.90;98.00;;;;;;5031731;28;20468;-67
2023/05/17 00:26:39;;;;;;;10.70;4.63;;;7.80;98.00;;;;;;5031847;28;20458;-67
2023/05/17 00:29:06;;;;;;;1.93;1.60;;;7.70;98.00;;;;;;5031629;28;20947;-67
2023/05/17 00:31:33;;;;;;;2.23;1.47;;;7.60;98.00;;;;;;5014312;28;21094;-67
2023/05/17 00:34:00;;;;;;;1.97;1.43;;;7.50;98.00;;;;;;5031704;28;20465;-67
2023/05/17 00:36:27;;;;;;;2.53;1.87;;;7.50;98.00;;;;;;5016141;28;20516;-68
2023/05/17 00:38:55;;;;;;;2.30;1.50;;;7.40;98.00;;;;;;5035678;28;20967;-67
2023/05/17 00:41:22;;;;;;;2.83;1.60;;;7.40;98.00;;;;;;5018264;28;20460;-67
2023/05/17 00:43:50;;;;;;;2.20;1.60;;;7.50;98.00;;;;;;5035667;28;20468;-67
2023/05/17 00:46:17;;;;;;;4.20;2.00;;;7.60;98.00;;;;;;5035486;28;20456;-68
2023/05/17 00:48:45;;;;;;;2.93;1.80;;;7.60;98.00;;;;;;5035652;28;20460;-68
2023/05/17 00:51:13;;;;;;;1.57;1.43;;;7.60;98.00;;;;;;5035447;28;20473;-68
2023/05/17 00:53:40;;;;;;;2.60;1.50;;;7.60;98.00;;;;;;5016718;28;20524;-67
2023/05/17 00:56:08;;;;;;;3.23;1.90;;;7.40;98.00;;;;;;5034717;28;20490;-67
2023/05/17 00:58:36;;;;;;;1.80;1.40;;;7.20;98.00;;;;;;5017208;28;20460;-67
2023/05/17 01:01:05;;;;;;;2.50;1.60;;;7.10;98.00;;;;;;5034736;28;20583;-68
2023/05/17 01:03:32;;;;;;;3.27;1.47;;;7.10;98.00;;;;;;5035344;28;20793;-67
2023/05/17 01:05:59;;;;;;;1.70;1.50;;;7.00;98.00;;;;;;5035135;28;20455;-67
2023/05/17 01:08:26;;;;;;;2.27;1.80;;;7.20;98.00;;;;;;5035011;28;20529;-67
2023/05/17 01:10:58;;;;;;;2.00;1.53;;;7.20;98.00;;;;;;5035102;28;20459;-68
2023/05/17 01:13:32;;;;;;;2.10;1.50;;;7.30;98.00;;;;;;5034955;28;20950;-67
2023/05/17 01:16:07;;;;;;;3.43;1.90;;;7.30;98.00;;;;;;5034955;28;20858;-67
2023/05/17 01:18:41;;;;;;;2.73;1.90;;;7.50;98.00;;;;;;5034924;28;20461;-68
2023/05/17 01:21:22;;;;;;;2.50;1.80;;;7.50;98.00;;;;;;5017253;28;20485;-67
2023/05/17 01:23:59;;;;;;;2.20;1.70;;;7.60;98.00;;;;;;5034814;28;20471;-67
2023/05/17 01:26:39;;;;;;;6.90;2.00;;;7.50;98.00;;;;;;5034479;28;20465;-68
2023/05/17 01:29:08;;;;;;;1.57;1.50;;;7.60;98.00;;;;;;5034773;28;20544;-67
2023/05/17 01:31:36;;;;;;;3.23;1.53;;;7.50;98.00;;;;;;5034786;28;20617;-67
2023/05/17 01:34:07;;;;;;;2.37;1.70;;;7.50;98.00;;;;;;5034585;28;20491;-67
2023/05/17 01:36:34;;;;;;;3.10;1.70;;;7.60;98.00;;;;;;5034470;28;20455;-67
2023/05/17 01:39:02;;;;;;;2.00;1.50;;;7.70;98.00;;;;;;5017076;28;20461;-67
2023/05/17 01:41:35;;;;;;;2.17;1.70;;;7.40;98.00;;;;;;5034593;28;20549;-67
2023/05/17 01:44:12;;;;;;;2.97;1.50;;;7.40;98.00;;;;;;5034535;28;20635;-67
2023/05/17 01:46:42;;;;;;;6.30;1.50;;;7.40;98.00;;;;;;5034628;28;20468;-67
2023/05/17 01:49:15;;;;;;;2.30;1.60;;;7.20;98.00;;;;;;5033909;28;20955;-67
2023/05/17 01:51:47;;;;;;;4.77;1.60;;;7.10;98.00;;;;;;5017743;28;20458;-67
2023/05/17 01:54:19;;;;;;;2.57;1.80;;;6.90;98.00;;;;;;5034771;28;20824;-67
2023/05/17 01:56:54;;;;;;;1.70;1.60;;;6.70;98.00;;;;;;5034779;28;20836;-67
2023/05/17 01:59:24;;;;;;;2.23;1.60;;;6.70;98.00;;;;;;5034215;28;20514;-67
2023/05/17 02:01:54;;;;;;;2.57;1.47;;;6.50;98.00;;;;;;5034097;28;20981;-67
2023/05/17 02:04:21;;;;;;;2.47;1.60;;;6.50;98.00;;;;;;5034065;28;20873;-67
2023/05/17 02:06:49;;;;;;;1.60;1.40;;;6.50;98.00;;;;;;5034018;28;20464;-67
2023/05/17 02:09:16;;;;;;;1.90;1.40;;;6.60;98.00;;;;;;5033532;28;20463;-67
2023/05/17 02:11:43;;;;;;;4.33;1.80;;;6.80;98.00;;;;;;5034076;28;20851;-67
2023/05/17 02:14:10;;;;;;;1.70;1.60;;;6.70;98.00;;;;;;5033679;28;20515;-67
2023/05/17 02:16:39;;;;;;;1.50;1.20;;;6.70;98.00;;;;;;5034039;28;20514;-68
2023/05/17 02:19:07;;;;;;;3.33;1.40;;;6.60;98.00;;;;;;5033627;28;20467;-67
2023/05/17 02:21:36;;;;;;;5.30;1.70;;;6.80;98.00;;;;;;5016412;28;20489;-67
2023/05/17 02:24:03;;;;;;;1.40;1.20;;;6.90;98.00;;;;;;5033614;28;20463;-67
2023/05/17 02:26:31;;;;;;;2.00;1.40;;;7.00;98.00;;;;;;5033750;28;20543;-67
2023/05/17 02:28:58;;;;;;;4.23;1.50;;;7.00;98.00;;;;;;5016090;28;20469;-67
2023/05/17 02:31:25;;;;;;;2.63;1.70;;;7.10;98.00;;;;;;5033623;28;20471;-67
2023/05/17 02:33:55;;;;;;;3.00;1.63;;;6.90;98.00;;;;;;5033635;28;20985;-67
2023/05/17 02:36:22;;;;;;;1.77;1.30;;;6.80;98.00;;;;;;5033661;28;20462;-67
2023/05/17 02:38:49;;;;;;;4.13;1.77;;;7.00;98.00;;;;;;5033569;28;20459;-67
2023/05/17 02:41:16;;;;;;;1.70;1.33;;;6.90;98.00;;;;;;5033567;28;20486;-67
2023/05/17 02:43:44;;;;;;;2.10;1.60;;;7.00;98.00;;;;;;5033485;28;20450;-67
2023/05/17 02:46:11;;;;;;;3.67;1.53;;;6.80;98.00;;;;;;5033521;28;20451;-67
2023/05/17 02:48:38;;;;;;;1.97;1.40;;;6.80;98.00;;;;;;5033579;28;20459;-67
2023/05/17 02:51:07;;;;;;;3.20;1.30;;;6.70;98.00;;;;;;5016250;28;20803;-67
2023/05/17 02:53:34;;;;;;;3.03;1.80;;;6.70;98.00;;;;;;5033300;28;20450;-67
2023/05/17 02:56:01;;;;;;;1.70;1.30;;;6.60;98.00;;;;;;5015876;28;20469;-67
2023/05/17 02:58:28;;;;;;;3.60;1.97;;;6.60;98.00;;;;;;5015170;28;20462;-67
2023/05/17 03:00:55;;;;;;;1.60;1.50;;;6.40;98.00;;;;;;5032343;28;20554;-67
2023/05/17 03:03:22;;;;;;;3.03;1.80;;;6.30;98.00;;;;;;5032866;28;20886;-67
2023/05/17 03:05:49;;;;;;;3.20;2.13;;;6.30;98.00;;;;;;5032941;28;20459;-67
2023/05/17 03:08:18;;;;;;;2.50;1.50;;;6.10;98.00;;;;;;5032684;28;20455;-67
2023/05/17 03:10:45;;;;;;;2.67;1.50;;;5.90;98.00;;;;;;5032407;28;20471;-67
2023/05/17 03:13:12;;;;;;;2.00;1.67;;;5.90;98.00;;;;;;5032667;28;20454;-67
2023/05/17 03:15:39;;;;;;;2.47;1.70;;;5.70;98.00;;;;;;5032720;28;20455;-68
2023/05/17 03:18:06;;;;;;;2.20;1.70;;;5.80;98.00;;;;;;5015139;28;20467;-67
2023/05/17 03:20:33;;;;;;;1.50;1.30;;;5.80;98.00;;;;;;5032530;28;20646;-67
2023/05/17 03:23:00;;;;;;;2.47;1.80;;;5.70;98.00;;;;;;5032582;28;20945;-67
2023/05/17 03:25:28;;;;;;;2.50;1.67;;;5.90;98.00;;;;;;5032524;28;20527;-67
2023/05/17 03:27:55;;;;;;;2.93;1.30;;;5.90;98.00;;;;;;5032424;28;20486;-67
2023/05/17 03:30:22;;;;;;;1.80;1.40;;;6.00;98.00;;;;;;5032733;28;20843;-67
2023/05/17 03:32:49;;;;;;;1.97;1.63;;;6.00;98.00;;;;;;5032431;28;20467;-67
2023/05/17 03:35:16;;;;;;;1.57;1.20;;;5.80;98.00;;;;;;5032674;28;20455;-67
2023/05/17 03:37:43;;;;;;;1.67;1.40;;;5.90;98.00;;;;;;5032541;28;20456;-67
2023/05/17 03:40:11;;;;;;;1.90;1.60;;;6.00;98.00;;;;;;5032499;28;20483;-67
2023/05/17 03:42:40;;;;;;;2.50;1.50;;;5.80;98.00;;;;;;5015160;28;20846;-67
2023/05/17 03:45:10;;;;;;;1.83;1.43;;;5.80;98.00;;;;;;5032571;28;20460;-67
2023/05/17 03:47:37;;;;;;;2.40;1.83;;;5.70;98.00;;;;;;5032133;28;20466;-67
2023/05/17 03:50:05;;;;;;;2.00;1.80;;;5.80;98.00;;;;;;5032411;28;20964;-67
2023/05/17 03:52:32;;;;;;;1.70;1.40;;;5.90;98.00;;;;;;5032038;28;20512;-67
2023/05/17 03:54:59;;;;;;;4.27;1.90;;;5.80;98.00;;;;;;5032298;28;20983;-67
2023/05/17 03:57:26;;;;;;;2.53;1.80;;;5.90;98.00;;;;;;5032069;28;20532;-67
2023/05/17 03:59:54;;;;;;;2.33;1.67;;;5.80;98.00;;;;;;5031948;28;20459;-67
2023/05/17 04:02:22;;;;;;;2.33;1.57;;;6.00;98.00;;;;;;5050061;28;20451;-67
2023/05/17 04:04:50;;;;;;;1.80;1.37;;;6.10;98.00;;;;;;5034364;28;20465;-67
2023/05/17 04:07:17;;;;;;;1.80;1.40;;;6.10;98.00;;;;;;5051643;28;20977;-67
2023/05/17 04:09:44;;;;;;;2.37;1.57;;;6.00;98.00;;;;;;5051077;28;20472;-67
2023/05/17 04:12:11;;;;;;;2.80;1.77;;;6.00;98.00;;;;;;5032844;28;20855;-67
2023/05/17 04:14:38;;;;;;;2.00;1.60;;;6.00;98.00;;;;;;5050938;28;20464;-68
2023/05/17 04:17:07;;;;;;;4.97;1.60;;;6.10;98.00;;;;;;5032925;28;20464;-67
2023/05/17 04:19:34;;;;;;;2.20;1.90;;;6.40;98.00;;;;;;5050891;28;20918;-67
2023/05/17 04:22:01;;;;;;;2.03;1.60;;;6.40;98.00;;;;;;5050799;28;20482;-67
2023/05/17 04:24:28;;;;;;;3.33;1.87;;;6.50;98.00;;;;;;5050834;28;20454;-67
2023/05/17 04:26:55;;;;;;;1.60;1.30;;;6.60;98.00;;;;;;5050939;28;20466;-67
2023/05/17 04:29:22;;;;;;;2.13;1.70;;;6.60;98.00;;;;;;5050907;28;20460;-67
2023/05/17 04:31:51;;;;;;;3.00;1.70;;;6.60;98.00;;;;;;5050887;28;20462;-67
2023/05/17 04:34:21;;;;;;;2.20;1.80;;;6.60;98.00;;;;;;5050827;28;20466;-67
2023/05/17 04:36:49;;;;;;;1.53;1.37;;;6.60;98.00;;;;;;5050849;28;20452;-68
2023/05/17 04:39:17;;;;;;;3.10;1.43;;;6.70;98.00;;;;;;5050975;28;20822;-67
2023/05/17 04:41:44;;;;;;;2.50;1.60;;;6.80;98.00;;;;;;5050983;28;20536;-67
2023/05/17 04:44:11;;;;;;;2.47;1.63;;;7.00;98.00;;;;;;5050884;28;20457;-67
2023/05/17 04:46:38;;;;;;;1.77;1.50;;;7.00;98.00;;;;;;5050754;28;20450;-68
2023/05/17 04:49:06;;;;;;;13.23;2.23;;;7.00;98.00;;;;;;5050942;28;20488;-67
2023/05/17 04:51:34;;;;;;;2.87;1.90;;;7.20;98.00;;;;;;5050522;28;20455;-67
2023/05/17 04:54:05;;;;;;;11.43;2.07;;;7.30;98.00;;;;;;5050657;28;20474;-68
2023/05/17 04:56:35;;;;;;;2.50;1.60;;;7.40;98.00;;;;;;5050853;28;20453;-67
2023/05/17 04:59:02;;;;;;;1.50;1.40;;;7.30;98.00;;;;;;5050709;28;20456;-67
2023/05/17 05:01:30;;;;;;;3.00;1.87;;;7.30;98.00;;;;;;5050714;28;20485;-67
2023/05/17 05:03:57;;;;;;;2.37;1.50;;;7.40;98.00;;;;;;5050606;28;20579;-67
2023/05/17 05:06:24;;;;;;;2.67;1.90;;;7.30;98.00;;;;;;5050769;28;20547;-67
2023/05/17 05:08:53;;;;;;;1.60;1.50;;;7.30;98.00;;;;;;5050453;28;20470;-67
2023/05/17 05:11:20;;;;;;;3.00;1.80;;;7.40;98.00;;;;;;5050824;28;20879;-67
2023/05/17 05:13:48;;;;;;;2.60;1.90;;;7.40;98.00;;;;;;5050686;28;20452;-67
2023/05/17 05:16:16;;;;;;;2.40;1.60;;;7.50;98.00;;;;;;5050633;28;20461;-67
2023/05/17 05:18:43;;;;;;;4.60;1.70;;;7.50;98.00;;;;;;5050576;28;20502;-67
2023/05/17 05:21:10;;;;;;;3.70;1.73;;;7.50;98.00;;;;;;5050543;28;20857;-68
2023/05/17 05:23:37;;;;;;;1.57;1.40;;;7.60;98.00;;;;;;5052989;28;20458;-67
2023/05/17 05:26:06;;;;;;;3.50;1.70;;;7.60;98.00;;;;;;5054342;28;20468;-67
2023/05/17 05:28:36;;;;;;;2.97;1.80;;;7.60;98.00;;;;;;5054244;28;20463;-67
2023/05/17 05:31:03;;;;;;;1.60;1.53;;;7.80;98.00;;;;;;5054363;28;20458;-68
2023/05/17 05:33:31;;;;;;;7.73;1.93;;;8.00;98.00;;;;;;5054481;28;20796;-67
2023/05/17 05:35:58;;;;;;;2.70;1.60;;;8.10;98.00;;;;;;5054474;28;20468;-67
2023/05/17 05:38:27;;;;;;;2.27;1.50;;;8.20;98.00;;;;;;5054256;28;20824;-67
2023/05/17 05:40:54;;;;;;;4.60;1.80;;;8.40;98.00;;;;;;5053451;28;20491;-67
2023/05/17 05:43:23;;;;;;;3.70;1.70;;;8.50;98.00;;;;;;5053702;28;20457;-68
2023/05/17 05:45:50;;;;;;;5.73;2.13;;;8.60;98.00;;;;;;5053588;28;20469;-68
2023/05/17 05:48:17;;;;;;;2.90;1.83;;;8.70;98.00;;;;;;5054111;28;20817;-68
2023/05/17 05:50:47;;;;;;;2.87;2.00;;;8.70;98.00;;;;;;5054291;28;20465;-68
2023/05/17 05:53:14;;;;;;;2.47;1.87;;;8.80;98.00;;;;;;5053832;28;20456;-68
2023/05/17 05:55:42;;;;;;;3.07;1.90;;;8.90;98.00;;;;;;5054277;28;20462;-67
2023/05/17 05:58:10;;;;;;;2.27;1.70;;;9.00;98.00;;;;;;5036491;28;20488;-68
2023/05/17 06:00:38;;;;;;;4.07;1.90;;;9.20;98.00;;;;;;5054118;28;20550;-62
2023/05/17 06:03:06;;;;;;;2.93;1.90;;;9.20;98.00;;;;;;5054082;28;20460;-64
2023/05/17 06:05:33;;;;;;;1.60;1.50;;;9.30;98.00;;;;;;5054067;28;20830;-62
2023/05/17 06:08:00;;;;;;;2.30;1.70;;;9.20;98.00;;;;;;5053980;28;20450;-65
2023/05/17 06:10:27;;;;;;;2.57;1.87;;;9.20;98.00;;;;;;5053905;28;21188;-63
2023/05/17 06:12:54;;;;;;;2.00;1.60;;;9.30;98.00;;;;;;5053943;28;20462;-65
2023/05/17 06:15:21;;;;;;;2.37;1.90;;;9.50;98.00;;;;;;5054045;28;20469;-62
2023/05/17 06:17:50;;;;;;;2.53;1.83;;;9.70;98.00;;;;;;5053875;28;20843;-63
2023/05/17 06:20:17;;;;;;;2.00;1.80;;;9.80;98.00;;;;;;5053878;28;20453;-63
2023/05/17 06:22:44;;;;;;;2.43;1.80;;;9.90;98.00;;;;;;5035908;28;20497;-61
2023/05/17 06:25:11;;;;;;;2.17;1.70;;;9.90;98.00;;;;;;5053787;28;20533;-63
2023/05/17 06:27:38;;;;;;;5.57;2.37;;;10.00;98.00;;;;;;5053535;28;20462;-63
2023/05/17 06:30:09;;;;;;;3.07;1.80;;;10.10;98.00;;;;;;5053774;28;20544;-63
2023/05/17 06:32:37;;;;;;;2.93;1.73;;;10.20;98.00;;;;;;5053612;28;20450;-63
2023/05/17 06:35:07;;;;;;;3.80;2.10;;;10.30;98.00;;;;;;5053175;28;20461;-63
2023/05/17 06:37:34;;;;;;;5.80;2.37;;;10.30;98.00;;;;;;5053291;28;20540;-63
2023/05/17 06:40:06;;;;;;;3.43;1.90;;;10.30;98.00;;;;;;5053312;28;20467;-63
2023/05/17 06:42:33;;;;;;;4.17;1.83;;;10.30;98.00;;;;;;5035780;28;20573;-63
2023/05/17 06:45:00;;;;;;;4.70;2.10;;;10.40;98.00;;;;;;5034855;28;20546;-63
2023/05/17 06:47:28;;;;;;;3.03;1.90;;;10.60;98.00;;;;;;5047846;28;20464;-63
2023/05/17 06:49:56;;;;;;;4.47;2.27;;;10.70;98.00;;;;;;5015562;28;20458;-64
2023/05/17 06:52:25;;;;;;;3.23;2.30;;;10.80;98.00;;;;;;5033646;28;20517;-63
2023/05/17 06:54:52;;;;;;;3.43;1.93;;;10.90;98.00;;;;;;5035591;28;20456;-63
2023/05/17 06:57:20;;;;;;;2.63;1.70;;;11.10;98.00;;;;;;5053067;28;20845;-63
2023/05/17 06:59:47;;;;;;;3.37;2.07;;;11.20;98.00;;;;;;5035414;28;20465;-62
2023/05/17 07:02:14;;;;;;;4.13;2.40;;;11.30;98.00;;;;;;5052750;28;20488;-64
2023/05/17 07:04:41;;;;;;;2.77;1.70;;;11.20;98.00;;;;;;5052883;28;20562;-63
2023/05/17 07:07:08;;;;;;;3.50;1.87;;;11.30;98.00;;;;;;5035316;28;21174;-63
2023/05/17 07:09:37;;;;;;;3.40;2.07;;;11.50;98.00;;;;;;5052753;28;20457;-63
2023/05/17 07:12:05;;;;;;;3.37;1.83;;;11.60;98.00;;;;;;5035218;28;20449;-63
2023/05/17 07:14:34;;;;;;;2.57;2.03;;;11.60;98.00;;;;;;5052531;28;20465;-64
2023/05/17 07:17:01;;;;;;;2.70;1.73;;;11.80;98.00;;;;;;5035162;28;20464;-63
2023/05/17 07:19:28;;;;;;;3.93;2.13;;;11.90;98.00;;;;;;5052751;28;20492;-63
2023/05/17 07:21:55;;;;;;;3.40;2.20;;;12.00;98.00;;;;;;5052259;28;20510;-63
2023/05/17 07:24:22;;;;;;;4.77;2.17;;;12.10;98.00;;;;;;5051873;28;20457;-64
2023/05/17 07:26:51;;;;;;;6.53;2.30;;;12.00;98.00;;;;;;5051851;28;20547;-63
2023/05/17 07:29:18;;;;;;;4.80;2.07;;;12.10;98.00;;;;;;5051927;28;20461;-63
2023/05/17 07:31:45;;;;;;;2.37;1.60;;;12.10;98.00;;;;;;5052266;28;20466;-63
2023/05/17 07:34:13;;;;;;;2.90;1.80;;;12.00;98.00;;;;;;5052201;28;20466;-63
2023/05/17 07:36:40;;;;;;;1.83;1.63;;;12.20;98.00;;;;;;5052163;28;20459;-63
2023/05/17 07:39:08;;;;;;;4.00;2.10;;;12.30;98.00;;;;;;5024919;28;20515;-65
2023/05/17 07:41:36;;;;;;;3.13;1.60;;;12.30;98.00;;;;;;5032240;28;20528;-63
2023/05/17 07:44:04;;;;;;;2.13;1.80;;;12.50;98.00;;;;;;5030797;28;20521;-64
2023/05/17 07:46:32;;;;;;;2.90;2.03;;;12.60;98.00;;;;;;5032602;28;20464;-63
2023/05/17 07:48:59;;;;;;;3.73;1.90;;;12.80;98.00;;;;;;5051908;28;20462;-63
2023/05/17 07:51:26;;;;;;;3.03;1.80;;;12.80;98.00;;;;;;5034294;28;20453;-65
2023/05/17 07:53:55;;;;;;;2.70;2.10;;;12.90;98.00;;;;;;5051501;28;20459;-63
2023/05/17 07:56:22;;;;;;;2.27;1.80;;;12.90;98.00;;;;;;5051497;28;20491;-63
2023/05/17 07:58:49;;;;;;;4.40;2.03;;;12.90;98.00;;;;;;5051594;28;20461;-64
2023/05/17 08:01:18;;;;;;;4.40;2.07;;;12.80;98.00;;;;;;5051309;28;20488;-64
2023/05/17 08:03:47;;;;;;;6.23;2.20;;;12.80;98.00;;;;;;5051405;28;20465;-63
2023/05/17 08:06:18;;;;;;;4.50;1.90;;;12.90;98.00;;;;;;5051568;28;20454;-63
2023/05/17 08:08:45;;;;;;;3.67;1.90;;;12.80;98.00;;;;;;5050782;28;20469;-64
2023/05/17 08:11:13;;;;;;;2.60;1.67;;;12.80;98.00;;;;;;5051666;28;20458;-65
2023/05/17 08:13:40;;;;;;;3.10;2.03;;;12.80;98.00;;;;;;5052164;28;20456;-63
2023/05/17 08:16:08;;;;;;;3.67;1.87;;;12.90;98.00;;;;;;5034490;28;20456;-63
2023/05/17 08:18:37;;;;;;;3.50;2.30;;;12.90;98.00;;;;;;5034430;28;20457;-64
2023/05/17 08:21:04;;;;;;;3.57;2.00;;;12.90;98.00;;;;;;5051901;28;20867;-63
2023/05/17 08:23:31;;;;;;;6.07;2.37;;;13.00;98.00;;;;;;5051809;28;20547;-64
2023/05/17 08:25:58;;;;;;;4.53;2.07;;;13.10;98.00;;;;;;5033925;28;20461;-65
2023/05/17 08:28:25;;;;;;;3.73;2.20;;;13.20;98.00;;;;;;5051873;28;20463;-64
2023/05/17 08:30:52;;;;;;;2.10;1.60;;;13.20;98.00;;;;;;5051472;28;20461;-63
2023/05/17 08:33:21;;;;;;;3.60;1.87;;;13.20;98.00;;;;;;5051675;28;20483;-63
2023/05/17 08:35:49;;;;;;;2.40;1.70;;;13.30;98.00;;;;;;5034060;28;20462;-64
2023/05/17 08:38:16;;;;;;;3.37;1.83;;;13.30;98.00;;;;;;5051400;28;20451;-63
2023/05/17 08:40:43;;;;;;;2.90;1.73;;;13.40;98.00;;;;;;5033825;28;20454;-63
2023/05/17 08:45:58;;;;;;;2.37;1.80;;;13.40;98.00;;;;;;5047849;28;20507;-63
2023/05/17 08:48:26;;;;;;;4.03;1.80;;;13.50;98.00;;;;;;5051365;28;20452;-64
2023/05/17 08:50:56;;;;;;;4.63;2.37;;;13.70;98.00;;;;;;5051469;28;20463;-63
2023/05/17 08:53:25;;;;;;;2.47;1.90;;;13.80;98.00;;;;;;5051462;28;20829;-63
2023/05/17 08:55:59;;;;;;;3.33;1.70;;;14.00;98.00;;;;;;5051526;28;20452;-63
2023/05/17 08:58:31;;;;;;;4.80;2.10;;;14.20;98.00;;;;;;5055410;28;20867;-65
2023/05/17 09:01:00;;;;;;;5.40;1.90;;;14.30;98.00;;;;;;5049839;28;20467;-63
2023/05/17 09:03:30;;;;;;;4.17;2.10;;;14.40;98.00;;;;;;5034587;28;20830;-63
2023/05/17 09:06:00;;;;;;;4.00;1.97;;;14.50;98.00;;;;;;5035093;28;20456;-62
2023/05/17 09:08:28;;;;;;;3.10;1.93;;;14.50;98.00;;;;;;5034765;28;20478;-63
2023/05/17 09:10:58;;;;;;;2.93;1.90;;;14.50;98.00;;;;;;5035260;28;20455;-62
2023/05/17 09:13:26;;;;;;;3.87;1.80;;;14.50;98.00;;;;;;5035176;28;20451;-62
2023/05/17 09:15:53;;;;;;;3.83;1.93;;;14.70;98.00;;;;;;5035157;28;20484;-63
2023/05/17 09:18:30;;;;;;;7.97;2.10;;;14.80;98.00;;;;;;5034957;28;20502;-63
2023/05/17 09:21:03;;;;;;;12.53;2.30;;;14.70;98.00;;;;;;5034927;28;20532;-62
2023/05/17 09:23:33;;;;;;;6.10;2.13;;;14.60;98.00;;;;;;5034742;28;20573;-62
2023/05/17 09:26:05;;;;;;;4.27;2.43;;;14.70;98.00;;;;;;5034664;28;20515;-62
2023/05/17 09:28:39;;;;;;;3.37;1.93;;;14.70;98.00;;;;;;5034683;28;20523;-64
2023/05/17 09:31:07;;;;;;;2.90;1.90;;;14.50;98.00;;;;;;5042765;28;20552;-62
2023/05/17 09:33:35;;;;;;;6.80;1.90;;;14.40;98.00;;;;;;5353424;22;20486;-64
2023/05/17 09:36:15;;;;;;;3.27;1.87;;;14.50;98.00;;;;;;5034646;28;20853;-63
2023/05/17 09:38:43;;;;;;;4.30;1.80;;;14.90;98.00;;;;;;5038279;28;20465;-64
2023/05/17 09:41:10;;;;;;;2.47;1.70;;;15.20;98.00;;;;;;5054280;28;20461;-63
2023/05/17 09:43:37;;;;;;;3.60;2.10;;;15.40;96.90;;;;;;5054115;28;20570;-64
2023/05/17 09:46:05;;;;;;;3.10;2.00;;;15.50;95.10;;;;;;5053660;28;20449;-64
2023/05/17 09:48:33;;;;;;;3.70;2.10;;;15.40;95.90;;;;;;5054171;28;20450;-66
2023/05/17 09:51:01;;;;;;;3.17;2.00;;;15.20;95.70;;;;;;5036550;28;20466;-64
2023/05/17 09:53:32;;;;;;;3.30;1.90;;;15.10;96.20;;;;;;5474023;22;20464;-68
2023/05/17 09:56:01;;;;;;;2.57;1.60;;;15.20;98.00;;;;;;5029337;28;20478;-67
2023/05/17 09:58:32;;;;;;;2.77;1.77;;;15.50;95.90;;;;;;5033504;28;21009;-68
2023/05/17 10:01:00;;;;;;;3.80;1.90;;;15.60;96.50;;;;;;5001662;28;20461;-66
2023/05/17 10:03:38;;;;;;;1.97;1.63;;;15.80;96.30;;;;;;5037822;28;20493;-68
2023/05/17 10:06:08;;;;;;;5.37;1.60;;;16.20;97.40;;;;;;5034421;28;20651;-68
2023/05/17 10:08:42;;;;;;;3.03;1.83;;;16.30;95.40;;;;;;5033803;28;20470;-68
2023/05/17 10:11:15;;;;;;;2.97;1.80;;;16.20;94.80;;;;;;5034168;28;20457;-69
2023/05/17 10:13:47;;;;;;;6.03;2.60;;;16.20;95.50;;;;;;5034307;28;20466;-68
2023/05/17 10:16:16;;;;;;;3.03;1.87;;;16.20;95.10;;;;;;5033957;28;20482;-68
2023/05/17 10:18:44;;;;;;;4.93;2.17;;;16.10;96.00;;;;;;5033791;28;20466;-67
2023/05/17 10:21:11;;;;;;;4.67;2.10;;;16.00;96.10;;;;;;5033458;28;20461;-68
2023/05/17 10:23:42;;;;;;;2.90;1.70;;;15.90;96.30;;;;;;5033152;28;20483;-67
2023/05/17 10:26:13;;;;;;;4.23;2.40;;;15.70;95.60;;;;;;5033198;28;20835;-68
2023/05/17 10:28:40;;;;;;;5.80;2.27;;;15.60;96.00;;;;;;5032775;28;20467;-67
2023/05/17 10:31:07;;;;;;;2.47;1.90;;;15.50;96.40;;;;;;5033174;28;20955;-68
2023/05/17 10:33:35;;;;;;;3.27;1.70;;;15.50;96.90;;;;;;5033648;28;21004;-68
2023/05/17 10:36:06;;;;;;;9.73;2.30;;;15.40;97.00;;;;;;5033534;28;21110;-67
2023/05/17 10:38:33;;;;;;;4.23;2.43;;;15.40;97.80;;;;;;5033081;28;20527;-69
2023/05/17 10:41:03;;;;;;;4.60;2.40;;;15.40;98.00;;;;;;5033420;28;20466;-68
2023/05/17 10:43:32;;;;;;;4.97;2.27;;;15.40;98.00;;;;;;5033396;28;20491;-68
2023/05/17 10:46:00;;;;;;;8.40;2.20;;;15.40;98.00;;;;;;5033432;28;20458;-68
2023/05/17 10:48:29;;;;;;;3.70;2.23;;;15.40;97.50;;;;;;5033428;28;20462;-68
2023/05/17 10:50:57;;;;;;;3.90;1.93;;;15.40;98.00;;;;;;5032488;28;20487;-68
2023/05/17 10:53:24;;;;;;;3.07;1.97;;;15.40;98.00;;;;;;5033138;28;20461;-68
2023/05/17 10:55:51;;;;;;;4.00;2.33;;;15.50;98.00;;;;;;5033341;28;20462;-68
2023/05/17 10:58:21;;;;;;;2.97;2.00;;;15.90;96.80;;;;;;5016040;28;20470;-69
2023/05/17 11:00:50;;;;;;;3.97;2.10;;;16.00;94.80;;;;;;5033439;28;20496;-68
2023/05/17 11:03:18;;;;;;;5.20;2.07;;;16.20;96.00;;;;;;5033098;28;20492;-68
2023/05/17 11:06:12;;;;;;;4.87;2.07;;;16.20;96.70;;;;;;5032888;28;20516;-68
2023/05/17 11:08:46;;;;;;;3.60;1.97;;;16.10;95.80;;;;;;5033040;28;20485;-69
2023/05/17 11:11:24;;;;;;;3.87;2.33;;;15.90;96.60;;;;;;5032928;28;20536;-68
2023/05/17 11:13:55;;;;;;;6.77;2.83;;;15.70;97.10;;;;;;5032689;28;20516;-68
2023/05/17 11:16:23;;;;;;;6.87;2.47;;;15.70;96.70;;;;;;5032670;28;20458;-68
2023/05/17 11:18:51;;;;;;;4.87;2.57;;;15.50;97.30;;;;;;5032746;28;21013;-67
2023/05/17 11:21:20;;;;;;;5.13;2.47;;;15.60;97.80;;;;;;5031948;28;20477;-69
2023/05/17 11:23:48;;;;;;;4.77;2.17;;;15.80;98.00;;;;;;5032539;28;20481;-67
2023/05/17 11:26:22;;;;;;;2.60;1.97;;;16.00;97.70;;;;;;5032756;28;20462;-68
2023/05/17 11:29:06;;;;;;;4.77;2.43;;;16.10;96.20;;;;;;5032572;28;21001;-67
2023/05/17 11:31:35;;;;;;;2.77;1.70;;;16.10;96.30;;;;;;5032767;28;20470;-68
2023/05/17 11:34:04;;;;;;;2.50;2.10;;;16.10;95.00;;;;;;5032497;28;20518;-68
2023/05/17 11:36:32;;;;;;;3.77;2.10;;;16.10;94.80;;;;;;5032780;28;20455;-69
2023/05/17 11:39:13;;;;;;;3.20;1.90;;;16.20;95.50;;;;;;5032501;28;20458;-68
2023/05/17 11:41:48;;;;;;;4.23;2.00;;;16.40;95.20;;;;;;5014641;28;20964;-70
2023/05/17 11:44:23;;;;;;;3.70;2.13;;;16.50;94.30;;;;;;5032319;28;20494;-69
2023/05/17 11:46:51;;;;;;;5.33;2.17;;;16.50;94.40;;;;;;5032624;28;20462;-69
2023/05/17 11:49:19;;;;;;;2.67;1.90;;;16.40;94.50;;;;;;5015084;28;20821;-69
2023/05/17 11:51:46;;;;;;;4.53;2.00;;;16.30;95.50;;;;;;5032522;28;20822;-71
2023/05/17 11:54:14;;;;;;;3.03;1.97;;;16.20;95.20;;;;;;5014742;28;20473;-70
2023/05/17 11:56:43;;;;;;;5.20;2.17;;;16.50;95.50;;;;;;5032183;28;20453;-70
2023/05/17 11:59:10;;;;;;;3.67;1.97;;;16.60;94.70;;;;;;5032288;28;20454;-70
2023/05/17 12:01:46;;;;;;;3.90;2.00;;;16.70;94.10;;;;;;5032020;28;20457;-69
2023/05/17 12:04:13;;;;;;;4.10;2.20;;;16.60;95.00;;;;;;5032094;28;20489;-70
2023/05/17 12:06:41;;;;;;;9.20;2.30;;;16.50;95.50;;;;;;5032105;28;20454;-69
2023/05/17 12:09:09;;;;;;;4.03;2.60;;;16.50;95.30;;;;;;5031913;28;20470;-69
2023/05/17 12:11:38;;;;;;;4.20;2.20;;;16.50;94.90;;;;;;5032074;28;20451;-70
2023/05/17 12:14:07;;;;;;;6.60;2.40;;;16.50;95.40;;;;;;5014505;28;20951;-69
2023/05/17 12:16:36;;;;;;;2.13;1.80;;;16.60;95.80;;;;;;5031998;28;20999;-67
2023/05/17 12:19:04;;;;;;;2.50;2.00;;;16.60;95.50;;;;;;5031802;28;20956;-69
2023/05/17 12:21:31;;;;;;;3.50;2.00;;;16.70;96.10;;;;;;5014553;28;20956;-70
2023/05/17 12:23:58;;;;;;;3.97;2.50;;;16.70;95.40;;;;;;5031786;28;20493;-69
2023/05/17 12:26:25;;;;;;;5.60;2.40;;;16.60;96.60;;;;;;5032131;28;20463;-70
2023/05/17 12:28:57;;;;;;;2.90;1.80;;;16.60;96.20;;;;;;5031753;28;20861;-69
2023/05/17 12:31:28;;;;;;;3.30;1.80;;;16.50;94.90;;;;;;5032497;28;20455;-67
2023/05/17 12:33:57;;;;;;;3.00;2.00;;;16.50;95.70;;;;;;5035991;28;20463;-69
2023/05/17 12:36:29;;;;;;;5.17;2.33;;;16.50;95.30;;;;;;5035842;28;20952;-70
2023/05/17 12:38:56;;;;;;;4.20;2.03;;;16.40;95.10;;;;;;5035876;28;20466;-68
2023/05/17 12:41:26;;;;;;;3.23;1.70;;;16.40;94.00;;;;;;5035887;28;20492;-68
2023/05/17 12:43:53;;;;;;;3.27;2.20;;;16.50;95.20;;;;;;5018009;28;20968;-68
2023/05/17 12:46:23;;;;;;;2.20;1.90;;;16.50;94.80;;;;;;5035720;28;20461;-70
2023/05/17 12:48:51;;;;;;;3.80;2.17;;;16.70;94.00;;;;;;5035246;28;20462;-68
2023/05/17 12:51:20;;;;;;;4.53;1.87;;;16.80;93.80;;;;;;5033883;28;20541;-69
2023/05/17 12:53:52;;;;;;;3.03;2.10;;;16.90;94.30;;;;;;5035534;28;21274;-69
2023/05/17 12:56:21;;;;;;;4.40;2.33;;;17.10;93.80;;;;;;5034526;28;20963;-69
2023/05/17 12:59:03;;;;;;;3.30;2.30;;;17.20;93.90;;;;;;5034438;28;20458;-70
2023/05/17 13:01:35;;;;;;;4.90;2.30;;;17.20;92.50;;;;;;5035453;28;20462;-69
2023/05/17 13:04:03;;;;;;;5.20;2.60;;;17.00;93.20;;;;;;5035303;28;20486;-69